Archival Weather

Phoenix Sky Harbor Intl

Phoenix, Arizona (KPHX)

Report from: Thursday, December 7, 2023 11:51 PM MST
Current time: Monday, July 22, 2024 3:04 AM MST

Current weather – Weather history – Daily summaries
Weather forecast

Temperature14.4°C (57.9°F)
Dew point1.7°C (35.1°F)
Winds 6 kts (3.1 m/s, 6.9 mph) East (90°)
Visibility10 mi. (16.1 km)
Clouds Sky clear
Altimeter29.89 in.Hg (1012 mB)
Relative humidity42 %
Density altitude103 ft. (32 m)
Sea-level pressure101.1 kPa (1011 mB, 29.86 in.Hg)
Max temp last 24 hours25.6°C (78.1°F)
Min temp last 24 hours11.7°C (53.1°F)
Remarks Automated weather observing station with precipitation discriminator
Flight conditions Visual Meteorological Conditions
Raw dataKPHX 080651Z 09006KT 10SM CLR 14/02 A2989 RMK AO2 SLP112 T01440017 402560117
An error has occurred. This application may no longer respond until reloaded. Reload 🗙